Aracena, Spain
Current Conditions -  °F | °C
As of 1:00 AM on Sunday 26 Oct 2014 (Local Time) from LEZL Reporting Station
Clear Clear  
Wind Chill: 16°   Ceiling: Unl
Heat Index: 16°   Visibility: 6mi
Dew Point: 11°   Wind: 1mph
Humidity: 72%   Direction: NA
Pressure: 30.09"   Gusts: NA
Location:  37.89°N, 6.56°W
Report Text: LEZL 252300Z VRB01KT CAVOK 16/11 Q1019 NOSIG
Loading
Personal Weather Stations






























Interactive Weather Map
Tropical Storm Tracking
New forecast layout! Learn more

10-Day Weather Forecast

Advertisements
Track Severe Weather on mobile